L'Isle-Verte, Canada
Current Conditions -  °F | °C
As of 9:00 AM on Thursday 27 Nov 2014 (Local Time) from CYYY Reporting Station
Overcast Overcast  
Wind Chill: 12°   Ceiling: 3500
Heat Index: 25°   Visibility: 15mi
Dew Point: 14°   Wind: 16mph
Humidity: 64%   Direction: 20°NNE
Pressure: 29.94"   Gusts: 31mph
Location:  48.02°N, 69.33°W
Report Text: CYYY 271400Z 02014G27KT 15SM OVC035 M04/M10 A2994 RMK SC8 SLP141
Loading
Personal Weather Stations






























Interactive Weather Map New forecast layout! Learn more

10-Day Weather Forecast

Advertisements
Track Severe Weather on mobile